sensor_id;sensor_type;location;lat;lon;timestamp;P1;durP1;ratioP1;P2;durP2;ratioP2
62788;SDS011;66401;42.016;21.454;2023-08-06T00:02:13;3.60;;;3.30;;
62788;SDS011;66401;42.016;21.454;2023-08-06T00:04:38;3.27;;;3.07;;
62788;SDS011;66401;42.016;21.454;2023-08-06T00:07:04;3.97;;;3.57;;
62788;SDS011;66401;42.016;21.454;2023-08-06T00:09:30;3.57;;;3.13;;
62788;SDS011;66401;42.016;21.454;2023-08-06T00:11:55;3.60;;;3.30;;
62788;SDS011;66401;42.016;21.454;2023-08-06T00:14:20;4.07;;;3.50;;
62788;SDS011;66401;42.016;21.454;2023-08-06T00:16:46;4.40;;;3.43;;
62788;SDS011;66401;42.016;21.454;2023-08-06T00:19:11;4.83;;;3.47;;
62788;SDS011;66401;42.016;21.454;2023-08-06T00:21:37;4.63;;;3.60;;
62788;SDS011;66401;42.016;21.454;2023-08-06T00:24:03;3.60;;;3.30;;
62788;SDS011;66401;42.016;21.454;2023-08-06T00:26:28;3.60;;;3.30;;
62788;SDS011;66401;42.016;21.454;2023-08-06T00:28:53;3.90;;;3.53;;
62788;SDS011;66401;42.016;21.454;2023-08-06T00:31:19;4.33;;;3.23;;
62788;SDS011;66401;42.016;21.454;2023-08-06T00:33:44;3.53;;;3.23;;
62788;SDS011;66401;42.016;21.454;2023-08-06T00:36:10;4.57;;;3.53;;
62788;SDS011;66401;42.016;21.454;2023-08-06T00:38:35;4.10;;;3.73;;
62788;SDS011;66401;42.016;21.454;2023-08-06T00:41:01;4.27;;;3.40;;
62788;SDS011;66401;42.016;21.454;2023-08-06T00:43:26;3.73;;;3.43;;
62788;SDS011;66401;42.016;21.454;2023-08-06T00:45:52;3.87;;;3.50;;
62788;SDS011;66401;42.016;21.454;2023-08-06T00:48:17;3.50;;;3.27;;
62788;SDS011;66401;42.016;21.454;2023-08-06T00:50:43;6.17;;;3.80;;
62788;SDS011;66401;42.016;21.454;2023-08-06T00:53:09;6.23;;;3.47;;
62788;SDS011;66401;42.016;21.454;2023-08-06T00:55:34;4.10;;;3.70;;
62788;SDS011;66401;42.016;21.454;2023-08-06T00:58:00;3.93;;;3.53;;
62788;SDS011;66401;42.016;21.454;2023-08-06T01:00:26;3.67;;;2.83;;
62788;SDS011;66401;42.016;21.454;2023-08-06T01:02:52;5.07;;;3.70;;
62788;SDS011;66401;42.016;21.454;2023-08-06T01:05:20;4.63;;;3.73;;
62788;SDS011;66401;42.016;21.454;2023-08-06T01:10:40;4.13;;;3.20;;
62788;SDS011;66401;42.016;21.454;2023-08-06T01:16:18;6.87;;;3.90;;
62788;SDS011;66401;42.016;21.454;2023-08-06T01:18:44;4.77;;;3.87;;
62788;SDS011;66401;42.016;21.454;2023-08-06T01:21:14;4.90;;;3.43;;
62788;SDS011;66401;42.016;21.454;2023-08-06T01:23:40;4.87;;;3.80;;
62788;SDS011;66401;42.016;21.454;2023-08-06T01:29:07;6.03;;;4.00;;
62788;SDS011;66401;42.016;21.454;2023-08-06T01:31:38;3.57;;;3.27;;
62788;SDS011;66401;42.016;21.454;2023-08-06T01:34:07;6.27;;;3.50;;
62788;SDS011;66401;42.016;21.454;2023-08-06T01:36:38;6.60;;;4.17;;
62788;SDS011;66401;42.016;21.454;2023-08-06T01:39:05;3.87;;;3.43;;
62788;SDS011;66401;42.016;21.454;2023-08-06T01:41:31;4.90;;;3.67;;
62788;SDS011;66401;42.016;21.454;2023-08-06T01:43:56;4.33;;;3.13;;
62788;SDS011;66401;42.016;21.454;2023-08-06T01:46:22;5.70;;;3.80;;
62788;SDS011;66401;42.016;21.454;2023-08-06T01:48:47;3.47;;;3.17;;
62788;SDS011;66401;42.016;21.454;2023-08-06T01:51:13;5.40;;;3.83;;
62788;SDS011;66401;42.016;21.454;2023-08-06T01:53:38;4.70;;;4.07;;
62788;SDS011;66401;42.016;21.454;2023-08-06T01:56:04;6.37;;;3.63;;
62788;SDS011;66401;42.016;21.454;2023-08-06T01:58:29;6.30;;;4.20;;
62788;SDS011;66401;42.016;21.454;2023-08-06T02:00:55;4.07;;;3.67;;
62788;SDS011;66401;42.016;21.454;2023-08-06T02:03:20;7.40;;;4.77;;
62788;SDS011;66401;42.016;21.454;2023-08-06T02:05:46;7.47;;;5.00;;
62788;SDS011;66401;42.016;21.454;2023-08-06T02:08:11;6.67;;;4.83;;
62788;SDS011;66401;42.016;21.454;2023-08-06T02:10:37;5.43;;;4.63;;
62788;SDS011;66401;42.016;21.454;2023-08-06T02:13:02;6.80;;;5.03;;
62788;SDS011;66401;42.016;21.454;2023-08-06T02:15:28;11.00;;;5.73;;
62788;SDS011;66401;42.016;21.454;2023-08-06T02:17:53;18.13;;;6.17;;
62788;SDS011;66401;42.016;21.454;2023-08-06T02:20:19;10.03;;;5.90;;
62788;SDS011;66401;42.016;21.454;2023-08-06T02:22:44;8.37;;;5.40;;
62788;SDS011;66401;42.016;21.454;2023-08-06T02:25:10;5.83;;;4.57;;
62788;SDS011;66401;42.016;21.454;2023-08-06T02:27:36;7.07;;;3.77;;
62788;SDS011;66401;42.016;21.454;2023-08-06T02:30:05;6.90;;;4.30;;
62788;SDS011;66401;42.016;21.454;2023-08-06T02:32:31;6.40;;;3.83;;
62788;SDS011;66401;42.016;21.454;2023-08-06T02:34:57;4.13;;;3.70;;
62788;SDS011;66401;42.016;21.454;2023-08-06T02:37:23;4.93;;;3.43;;
62788;SDS011;66401;42.016;21.454;2023-08-06T02:39:48;3.77;;;3.47;;
62788;SDS011;66401;42.016;21.454;2023-08-06T02:42:14;4.67;;;3.10;;
62788;SDS011;66401;42.016;21.454;2023-08-06T02:44:39;5.80;;;3.43;;
62788;SDS011;66401;42.016;21.454;2023-08-06T02:47:05;4.20;;;3.10;;
62788;SDS011;66401;42.016;21.454;2023-08-06T02:49:30;3.30;;;3.00;;
62788;SDS011;66401;42.016;21.454;2023-08-06T02:51:56;4.53;;;3.70;;
62788;SDS011;66401;42.016;21.454;2023-08-06T02:54:21;4.43;;;3.67;;
62788;SDS011;66401;42.016;21.454;2023-08-06T02:56:47;5.07;;;3.20;;
62788;SDS011;66401;42.016;21.454;2023-08-06T02:59:13;3.70;;;3.13;;
62788;SDS011;66401;42.016;21.454;2023-08-06T03:01:39;3.93;;;3.30;;
62788;SDS011;66401;42.016;21.454;2023-08-06T03:04:05;5.67;;;3.80;;
62788;SDS011;66401;42.016;21.454;2023-08-06T03:06:31;8.00;;;3.50;;
62788;SDS011;66401;42.016;21.454;2023-08-06T03:08:56;5.57;;;4.27;;
62788;SDS011;66401;42.016;21.454;2023-08-06T03:11:22;4.37;;;3.47;;
62788;SDS011;66401;42.016;21.454;2023-08-06T03:13:47;5.20;;;3.70;;
62788;SDS011;66401;42.016;21.454;2023-08-06T03:16:13;3.80;;;3.33;;
62788;SDS011;66401;42.016;21.454;2023-08-06T03:18:39;4.60;;;3.30;;
62788;SDS011;66401;42.016;21.454;2023-08-06T03:21:04;3.60;;;3.27;;
62788;SDS011;66401;42.016;21.454;2023-08-06T03:23:30;4.50;;;3.43;;
62788;SDS011;66401;42.016;21.454;2023-08-06T03:25:55;6.57;;;3.20;;
62788;SDS011;66401;42.016;21.454;2023-08-06T03:28:21;6.13;;;3.03;;
62788;SDS011;66401;42.016;21.454;2023-08-06T03:30:47;5.50;;;3.13;;
62788;SDS011;66401;42.016;21.454;2023-08-06T03:33:13;4.73;;;3.30;;
62788;SDS011;66401;42.016;21.454;2023-08-06T03:35:38;4.97;;;3.63;;
62788;SDS011;66401;42.016;21.454;2023-08-06T03:38:04;6.53;;;3.53;;
62788;SDS011;66401;42.016;21.454;2023-08-06T03:40:29;5.93;;;4.03;;
62788;SDS011;66401;42.016;21.454;2023-08-06T03:42:55;4.67;;;4.17;;
62788;SDS011;66401;42.016;21.454;2023-08-06T03:45:20;6.97;;;4.47;;
62788;SDS011;66401;42.016;21.454;2023-08-06T03:47:46;9.67;;;5.13;;
62788;SDS011;66401;42.016;21.454;2023-08-06T03:50:11;7.13;;;4.73;;
62788;SDS011;66401;42.016;21.454;2023-08-06T03:52:37;6.20;;;4.80;;
62788;SDS011;66401;42.016;21.454;2023-08-06T03:55:02;8.20;;;5.30;;
62788;SDS011;66401;42.016;21.454;2023-08-06T03:57:28;5.97;;;5.13;;
62788;SDS011;66401;42.016;21.454;2023-08-06T03:59:54;9.67;;;5.53;;
62788;SDS011;66401;42.016;21.454;2023-08-06T04:02:19;7.50;;;4.90;;
62788;SDS011;66401;42.016;21.454;2023-08-06T04:04:45;9.20;;;4.77;;
62788;SDS011;66401;42.016;21.454;2023-08-06T04:07:10;6.40;;;5.27;;
62788;SDS011;66401;42.016;21.454;2023-08-06T04:09:50;6.03;;;5.33;;
62788;SDS011;66401;42.016;21.454;2023-08-06T04:12:26;6.60;;;4.53;;
62788;SDS011;66401;42.016;21.454;2023-08-06T04:14:52;7.10;;;5.00;;
62788;SDS011;66401;42.016;21.454;2023-08-06T04:17:18;7.77;;;5.37;;
62788;SDS011;66401;42.016;21.454;2023-08-06T04:19:52;5.87;;;4.90;;
62788;SDS011;66401;42.016;21.454;2023-08-06T04:22:19;9.77;;;5.17;;
62788;SDS011;66401;42.016;21.454;2023-08-06T04:24:46;6.33;;;4.53;;
62788;SDS011;66401;42.016;21.454;2023-08-06T04:27:12;6.37;;;5.33;;
62788;SDS011;66401;42.016;21.454;2023-08-06T04:29:38;10.67;;;5.17;;
62788;SDS011;66401;42.016;21.454;2023-08-06T04:32:05;5.77;;;4.53;;
62788;SDS011;66401;42.016;21.454;2023-08-06T04:34:32;7.73;;;4.83;;
62788;SDS011;66401;42.016;21.454;2023-08-06T04:36:58;8.33;;;5.47;;
62788;SDS011;66401;42.016;21.454;2023-08-06T04:39:24;9.07;;;5.53;;
62788;SDS011;66401;42.016;21.454;2023-08-06T04:41:49;9.03;;;6.20;;
62788;SDS011;66401;42.016;21.454;2023-08-06T04:44:15;8.97;;;6.47;;
62788;SDS011;66401;42.016;21.454;2023-08-06T04:46:40;9.77;;;6.53;;
62788;SDS011;66401;42.016;21.454;2023-08-06T04:49:06;9.77;;;5.93;;
62788;SDS011;66401;42.016;21.454;2023-08-06T04:51:32;14.53;;;6.97;;
62788;SDS011;66401;42.016;21.454;2023-08-06T04:53:58;12.53;;;7.00;;
62788;SDS011;66401;42.016;21.454;2023-08-06T04:56:23;12.00;;;7.60;;
62788;SDS011;66401;42.016;21.454;2023-08-06T04:58:49;10.83;;;7.03;;
62788;SDS011;66401;42.016;21.454;2023-08-06T05:01:15;16.23;;;8.00;;
62788;SDS011;66401;42.016;21.454;2023-08-06T05:03:41;8.93;;;7.00;;
62788;SDS011;66401;42.016;21.454;2023-08-06T05:06:06;9.40;;;6.57;;
62788;SDS011;66401;42.016;21.454;2023-08-06T05:08:32;10.43;;;7.03;;
62788;SDS011;66401;42.016;21.454;2023-08-06T05:10:57;11.53;;;7.67;;
62788;SDS011;66401;42.016;21.454;2023-08-06T05:13:23;14.83;;;7.80;;
62788;SDS011;66401;42.016;21.454;2023-08-06T05:15:48;12.13;;;7.50;;
62788;SDS011;66401;42.016;21.454;2023-08-06T05:18:14;12.53;;;8.40;;
62788;SDS011;66401;42.016;21.454;2023-08-06T05:23:08;16.40;;;8.13;;
62788;SDS011;66401;42.016;21.454;2023-08-06T05:28:05;13.87;;;7.30;;
62788;SDS011;66401;42.016;21.454;2023-08-06T05:30:31;14.13;;;8.23;;
62788;SDS011;66401;42.016;21.454;2023-08-06T05:32:57;15.33;;;7.97;;
62788;SDS011;66401;42.016;21.454;2023-08-06T05:35:22;15.53;;;8.90;;
62788;SDS011;66401;42.016;21.454;2023-08-06T05:37:48;14.20;;;8.37;;
62788;SDS011;66401;42.016;21.454;2023-08-06T05:40:15;12.13;;;7.37;;
62788;SDS011;66401;42.016;21.454;2023-08-06T05:42:41;13.23;;;7.40;;
62788;SDS011;66401;42.016;21.454;2023-08-06T05:45:07;14.03;;;7.83;;
62788;SDS011;66401;42.016;21.454;2023-08-06T05:47:33;13.60;;;8.33;;
62788;SDS011;66401;42.016;21.454;2023-08-06T05:49:58;12.17;;;7.87;;
62788;SDS011;66401;42.016;21.454;2023-08-06T05:52:24;12.10;;;8.27;;
62788;SDS011;66401;42.016;21.454;2023-08-06T05:54:49;11.43;;;7.33;;
62788;SDS011;66401;42.016;21.454;2023-08-06T05:57:15;12.30;;;7.77;;
62788;SDS011;66401;42.016;21.454;2023-08-06T05:59:41;12.97;;;7.53;;
62788;SDS011;66401;42.016;21.454;2023-08-06T06:02:06;12.53;;;8.13;;
62788;SDS011;66401;42.016;21.454;2023-08-06T06:04:32;13.73;;;8.67;;
62788;SDS011;66401;42.016;21.454;2023-08-06T06:06:57;13.37;;;7.77;;
62788;SDS011;66401;42.016;21.454;2023-08-06T06:09:27;10.63;;;7.07;;
62788;SDS011;66401;42.016;21.454;2023-08-06T06:11:53;11.43;;;7.50;;
62788;SDS011;66401;42.016;21.454;2023-08-06T06:14:18;13.13;;;7.47;;
62788;SDS011;66401;42.016;21.454;2023-08-06T06:16:44;10.43;;;7.33;;
62788;SDS011;66401;42.016;21.454;2023-08-06T06:19:10;13.70;;;8.13;;
62788;SDS011;66401;42.016;21.454;2023-08-06T06:21:36;10.47;;;7.83;;
62788;SDS011;66401;42.016;21.454;2023-08-06T06:24:03;8.57;;;7.13;;
62788;SDS011;66401;42.016;21.454;2023-08-06T06:26:29;8.00;;;6.20;;
62788;SDS011;66401;42.016;21.454;2023-08-06T06:28:55;8.50;;;5.57;;
62788;SDS011;66401;42.016;21.454;2023-08-06T06:31:20;8.03;;;6.27;;
62788;SDS011;66401;42.016;21.454;2023-08-06T06:33:46;7.43;;;6.30;;
62788;SDS011;66401;42.016;21.454;2023-08-06T06:36:11;8.40;;;6.47;;
62788;SDS011;66401;42.016;21.454;2023-08-06T06:38:37;8.83;;;5.90;;
62788;SDS011;66401;42.016;21.454;2023-08-06T06:41:03;6.70;;;5.30;;
62788;SDS011;66401;42.016;21.454;2023-08-06T06:43:29;9.37;;;5.67;;
62788;SDS011;66401;42.016;21.454;2023-08-06T06:45:59;10.27;;;5.47;;
62788;SDS011;66401;42.016;21.454;2023-08-06T06:48:28;5.40;;;4.90;;
62788;SDS011;66401;42.016;21.454;2023-08-06T06:50:55;5.63;;;4.57;;
62788;SDS011;66401;42.016;21.454;2023-08-06T06:53:21;6.40;;;5.47;;
62788;SDS011;66401;42.016;21.454;2023-08-06T06:55:52;6.57;;;5.47;;
62788;SDS011;66401;42.016;21.454;2023-08-06T06:58:21;9.97;;;5.93;;
62788;SDS011;66401;42.016;21.454;2023-08-06T07:00:47;6.77;;;5.90;;
62788;SDS011;66401;42.016;21.454;2023-08-06T07:03:14;5.90;;;5.40;;
62788;SDS011;66401;42.016;21.454;2023-08-06T07:05:43;6.03;;;5.47;;
62788;SDS011;66401;42.016;21.454;2023-08-06T07:08:09;6.17;;;5.57;;
62788;SDS011;66401;42.016;21.454;2023-08-06T07:10:34;8.20;;;5.67;;
62788;SDS011;66401;42.016;21.454;2023-08-06T07:13:00;4.67;;;4.20;;
62788;SDS011;66401;42.016;21.454;2023-08-06T07:15:25;4.20;;;3.80;;
62788;SDS011;66401;42.016;21.454;2023-08-06T07:17:51;6.73;;;4.93;;
62788;SDS011;66401;42.016;21.454;2023-08-06T07:20:16;9.13;;;4.93;;
62788;SDS011;66401;42.016;21.454;2023-08-06T07:22:43;6.90;;;4.13;;
62788;SDS011;66401;42.016;21.454;2023-08-06T07:25:09;10.33;;;5.23;;
62788;SDS011;66401;42.016;21.454;2023-08-06T07:27:34;7.57;;;5.43;;
62788;SDS011;66401;42.016;21.454;2023-08-06T07:30:00;8.97;;;4.83;;
62788;SDS011;66401;42.016;21.454;2023-08-06T07:32:26;3.97;;;3.57;;
62788;SDS011;66401;42.016;21.454;2023-08-06T07:34:52;4.27;;;3.60;;
62788;SDS011;66401;42.016;21.454;2023-08-06T07:37:22;4.20;;;3.60;;
62788;SDS011;66401;42.016;21.454;2023-08-06T07:39:48;4.80;;;4.23;;
62788;SDS011;66401;42.016;21.454;2023-08-06T07:42:13;5.70;;;5.10;;
62788;SDS011;66401;42.016;21.454;2023-08-06T07:44:39;5.87;;;5.27;;
62788;SDS011;66401;42.016;21.454;2023-08-06T07:47:04;4.77;;;3.80;;
62788;SDS011;66401;42.016;21.454;2023-08-06T07:49:31;5.70;;;4.07;;
62788;SDS011;66401;42.016;21.454;2023-08-06T07:51:58;6.30;;;3.70;;
62788;SDS011;66401;42.016;21.454;2023-08-06T07:54:23;4.37;;;3.97;;
62788;SDS011;66401;42.016;21.454;2023-08-06T07:56:49;5.47;;;3.63;;
62788;SDS011;66401;42.016;21.454;2023-08-06T07:59:15;6.27;;;3.20;;
62788;SDS011;66401;42.016;21.454;2023-08-06T08:01:40;5.30;;;3.37;;
62788;SDS011;66401;42.016;21.454;2023-08-06T08:04:06;4.37;;;3.43;;
62788;SDS011;66401;42.016;21.454;2023-08-06T08:06:32;5.80;;;4.23;;
62788;SDS011;66401;42.016;21.454;2023-08-06T08:08:58;5.03;;;3.83;;
62788;SDS011;66401;42.016;21.454;2023-08-06T08:11:25;3.80;;;3.50;;
62788;SDS011;66401;42.016;21.454;2023-08-06T08:13:50;4.03;;;3.67;;
62788;SDS011;66401;42.016;21.454;2023-08-06T08:16:16;4.17;;;3.77;;
62788;SDS011;66401;42.016;21.454;2023-08-06T08:18:41;5.63;;;4.40;;
62788;SDS011;66401;42.016;21.454;2023-08-06T08:21:07;4.77;;;4.00;;
62788;SDS011;66401;42.016;21.454;2023-08-06T08:23:32;5.00;;;3.87;;
62788;SDS011;66401;42.016;21.454;2023-08-06T08:25:58;4.00;;;3.60;;
62788;SDS011;66401;42.016;21.454;2023-08-06T08:28:24;3.47;;;3.17;;
62788;SDS011;66401;42.016;21.454;2023-08-06T08:30:49;4.30;;;3.43;;
62788;SDS011;66401;42.016;21.454;2023-08-06T08:33:15;3.37;;;3.07;;
62788;SDS011;66401;42.016;21.454;2023-08-06T08:35:40;2.80;;;2.60;;
62788;SDS011;66401;42.016;21.454;2023-08-06T08:38:06;3.63;;;2.80;;
62788;SDS011;66401;42.016;21.454;2023-08-06T08:40:32;2.57;;;2.37;;
62788;SDS011;66401;42.016;21.454;2023-08-06T08:42:58;2.30;;;2.17;;
62788;SDS011;66401;42.016;21.454;2023-08-06T08:45:26;2.77;;;2.57;;
62788;SDS011;66401;42.016;21.454;2023-08-06T08:47:53;2.77;;;2.50;;
62788;SDS011;66401;42.016;21.454;2023-08-06T08:50:18;2.80;;;2.53;;
62788;SDS011;66401;42.016;21.454;2023-08-06T08:52:45;3.20;;;2.43;;
62788;SDS011;66401;42.016;21.454;2023-08-06T08:55:11;2.30;;;2.10;;
62788;SDS011;66401;42.016;21.454;2023-08-06T08:57:37;2.50;;;2.03;;
62788;SDS011;66401;42.016;21.454;2023-08-06T09:00:02;5.97;;;3.67;;
62788;SDS011;66401;42.016;21.454;2023-08-06T19:32:54;0.67;;;0.67;;
62788;SDS011;66401;42.016;21.454;2023-08-06T19:35:19;1.20;;;1.10;;
62788;SDS011;66401;42.016;21.454;2023-08-06T19:37:45;4.37;;;1.30;;
62788;SDS011;66401;42.016;21.454;2023-08-06T19:40:10;1.60;;;1.43;;
62788;SDS011;66401;42.016;21.454;2023-08-06T19:42:38;1.73;;;1.53;;
62788;SDS011;66401;42.016;21.454;2023-08-06T19:45:04;3.40;;;1.50;;
62788;SDS011;66401;42.016;21.454;2023-08-06T19:47:30;2.70;;;1.50;;
62788;SDS011;66401;42.016;21.454;2023-08-06T19:49:56;1.83;;;1.30;;
62788;SDS011;66401;42.016;21.454;2023-08-06T19:52:21;1.80;;;1.37;;
62788;SDS011;66401;42.016;21.454;2023-08-06T19:54:47;2.73;;;2.20;;
62788;SDS011;66401;42.016;21.454;2023-08-06T19:57:12;3.37;;;2.63;;
62788;SDS011;66401;42.016;21.454;2023-08-06T19:59:37;3.57;;;2.33;;
62788;SDS011;66401;42.016;21.454;2023-08-06T20:02:03;5.43;;;2.30;;
62788;SDS011;66401;42.016;21.454;2023-08-06T20:04:29;2.87;;;2.30;;
62788;SDS011;66401;42.016;21.454;2023-08-06T20:06:54;5.30;;;2.67;;
62788;SDS011;66401;42.016;21.454;2023-08-06T20:09:20;4.50;;;2.13;;
62788;SDS011;66401;42.016;21.454;2023-08-06T20:11:45;3.60;;;2.13;;
62788;SDS011;66401;42.016;21.454;2023-08-06T20:14:11;3.37;;;2.10;;
62788;SDS011;66401;42.016;21.454;2023-08-06T20:16:36;4.27;;;2.30;;
62788;SDS011;66401;42.016;21.454;2023-08-06T20:19:01;1.93;;;1.67;;
62788;SDS011;66401;42.016;21.454;2023-08-06T20:21:27;3.67;;;1.50;;
62788;SDS011;66401;42.016;21.454;2023-08-06T20:23:53;2.97;;;1.20;;
62788;SDS011;66401;42.016;21.454;2023-08-06T20:26:18;2.30;;;1.30;;
62788;SDS011;66401;42.016;21.454;2023-08-06T20:28:44;1.57;;;1.30;;
62788;SDS011;66401;42.016;21.454;2023-08-06T20:31:09;2.97;;;1.70;;
62788;SDS011;66401;42.016;21.454;2023-08-06T20:33:35;4.70;;;1.80;;
62788;SDS011;66401;42.016;21.454;2023-08-06T20:36:01;6.87;;;3.10;;
62788;SDS011;66401;42.016;21.454;2023-08-06T20:38:27;6.30;;;2.60;;
62788;SDS011;66401;42.016;21.454;2023-08-06T20:40:53;4.90;;;2.60;;
62788;SDS011;66401;42.016;21.454;2023-08-06T20:43:20;5.53;;;2.67;;
62788;SDS011;66401;42.016;21.454;2023-08-06T20:45:52;2.80;;;2.60;;
62788;SDS011;66401;42.016;21.454;2023-08-06T20:48:23;5.43;;;2.20;;
62788;SDS011;66401;42.016;21.454;2023-08-06T20:50:49;2.53;;;2.03;;
62788;SDS011;66401;42.016;21.454;2023-08-06T20:53:14;3.23;;;2.60;;
62788;SDS011;66401;42.016;21.454;2023-08-06T20:55:40;5.20;;;2.43;;
62788;SDS011;66401;42.016;21.454;2023-08-06T20:58:05;3.63;;;2.40;;
62788;SDS011;66401;42.016;21.454;2023-08-06T21:00:31;3.63;;;2.37;;
62788;SDS011;66401;42.016;21.454;2023-08-06T21:02:57;3.93;;;2.30;;
62788;SDS011;66401;42.016;21.454;2023-08-06T21:05:23;3.60;;;2.27;;
62788;SDS011;66401;42.016;21.454;2023-08-06T21:07:50;2.80;;;2.03;;
62788;SDS011;66401;42.016;21.454;2023-08-06T21:10:15;4.03;;;2.13;;
62788;SDS011;66401;42.016;21.454;2023-08-06T21:12:41;2.43;;;2.10;;
62788;SDS011;66401;42.016;21.454;2023-08-06T21:15:07;2.53;;;1.70;;
62788;SDS011;66401;42.016;21.454;2023-08-06T21:17:33;3.20;;;2.17;;
62788;SDS011;66401;42.016;21.454;2023-08-06T21:19:58;1.90;;;1.80;;
62788;SDS011;66401;42.016;21.454;2023-08-06T21:22:24;1.70;;;1.60;;
62788;SDS011;66401;42.016;21.454;2023-08-06T21:24:49;1.83;;;1.50;;
62788;SDS011;66401;42.016;21.454;2023-08-06T21:27:15;4.33;;;2.03;;
62788;SDS011;66401;42.016;21.454;2023-08-06T21:29:40;1.77;;;1.67;;
62788;SDS011;66401;42.016;21.454;2023-08-06T21:32:08;4.40;;;1.97;;
62788;SDS011;66401;42.016;21.454;2023-08-06T21:34:34;3.17;;;2.00;;
62788;SDS011;66401;42.016;21.454;2023-08-06T21:36:59;3.30;;;2.10;;
62788;SDS011;66401;42.016;21.454;2023-08-06T21:39:25;4.33;;;2.40;;
62788;SDS011;66401;42.016;21.454;2023-08-06T21:41:50;3.57;;;2.47;;
62788;SDS011;66401;42.016;21.454;2023-08-06T21:44:16;3.63;;;2.00;;
62788;SDS011;66401;42.016;21.454;2023-08-06T21:46:41;3.67;;;1.90;;
62788;SDS011;66401;42.016;21.454;2023-08-06T21:49:07;2.30;;;1.50;;
62788;SDS011;66401;42.016;21.454;2023-08-06T21:51:32;2.07;;;1.70;;
62788;SDS011;66401;42.016;21.454;2023-08-06T21:53:59;1.80;;;1.70;;
62788;SDS011;66401;42.016;21.454;2023-08-06T21:56:25;5.57;;;2.37;;
62788;SDS011;66401;42.016;21.454;2023-08-06T21:58:50;4.83;;;2.20;;
62788;SDS011;66401;42.016;21.454;2023-08-06T22:01:17;4.93;;;2.27;;
62788;SDS011;66401;42.016;21.454;2023-08-06T22:03:43;2.53;;;1.90;;
62788;SDS011;66401;42.016;21.454;2023-08-06T22:06:09;3.37;;;2.47;;
62788;SDS011;66401;42.016;21.454;2023-08-06T22:08:35;3.00;;;2.40;;
62788;SDS011;66401;42.016;21.454;2023-08-06T22:11:04;3.57;;;2.10;;
62788;SDS011;66401;42.016;21.454;2023-08-06T22:13:30;3.43;;;2.70;;
62788;SDS011;66401;42.016;21.454;2023-08-06T22:15:56;4.00;;;2.50;;
62788;SDS011;66401;42.016;21.454;2023-08-06T22:18:22;2.50;;;2.20;;
62788;SDS011;66401;42.016;21.454;2023-08-06T22:20:48;5.83;;;2.60;;
62788;SDS011;66401;42.016;21.454;2023-08-06T22:23:15;7.83;;;2.70;;
62788;SDS011;66401;42.016;21.454;2023-08-06T22:25:40;3.00;;;2.40;;
62788;SDS011;66401;42.016;21.454;2023-08-06T22:28:06;2.93;;;1.90;;
62788;SDS011;66401;42.016;21.454;2023-08-06T22:30:31;2.53;;;2.33;;
62788;SDS011;66401;42.016;21.454;2023-08-06T22:32:57;4.73;;;2.13;;
62788;SDS011;66401;42.016;21.454;2023-08-06T22:35:23;4.27;;;2.47;;
62788;SDS011;66401;42.016;21.454;2023-08-06T22:37:49;2.57;;;2.37;;
62788;SDS011;66401;42.016;21.454;2023-08-06T22:40:15;2.40;;;2.20;;
62788;SDS011;66401;42.016;21.454;2023-08-06T22:42:42;4.50;;;1.90;;
62788;SDS011;66401;42.016;21.454;2023-08-06T22:45:09;5.77;;;2.10;;
62788;SDS011;66401;42.016;21.454;2023-08-06T22:47:38;5.30;;;2.20;;
62788;SDS011;66401;42.016;21.454;2023-08-06T22:50:08;3.33;;;1.97;;
62788;SDS011;66401;42.016;21.454;2023-08-06T22:52:35;4.43;;;2.10;;
62788;SDS011;66401;42.016;21.454;2023-08-06T22:55:01;1.80;;;1.70;;
62788;SDS011;66401;42.016;21.454;2023-08-06T22:57:27;4.03;;;2.20;;
62788;SDS011;66401;42.016;21.454;2023-08-06T22:59:52;4.67;;;3.23;;
62788;SDS011;66401;42.016;21.454;2023-08-06T23:02:18;4.23;;;2.97;;
62788;SDS011;66401;42.016;21.454;2023-08-06T23:04:43;5.23;;;3.10;;
62788;SDS011;66401;42.016;21.454;2023-08-06T23:07:09;3.33;;;2.70;;
62788;SDS011;66401;42.016;21.454;2023-08-06T23:09:34;7.57;;;3.17;;
62788;SDS011;66401;42.016;21.454;2023-08-06T23:12:00;4.40;;;3.27;;
62788;SDS011;66401;42.016;21.454;2023-08-06T23:14:25;5.87;;;2.90;;
62788;SDS011;66401;42.016;21.454;2023-08-06T23:16:51;5.50;;;2.87;;
62788;SDS011;66401;42.016;21.454;2023-08-06T23:19:17;8.93;;;3.10;;
62788;SDS011;66401;42.016;21.454;2023-08-06T23:21:43;6.37;;;2.50;;
62788;SDS011;66401;42.016;21.454;2023-08-06T23:24:08;3.07;;;2.17;;
62788;SDS011;66401;42.016;21.454;2023-08-06T23:26:34;4.33;;;2.07;;
62788;SDS011;66401;42.016;21.454;2023-08-06T23:28:59;2.33;;;1.83;;
62788;SDS011;66401;42.016;21.454;2023-08-06T23:31:25;2.40;;;1.40;;
62788;SDS011;66401;42.016;21.454;2023-08-06T23:33:50;2.37;;;1.50;;
62788;SDS011;66401;42.016;21.454;2023-08-06T23:36:16;1.30;;;0.93;;
62788;SDS011;66401;42.016;21.454;2023-08-06T23:38:41;2.10;;;1.63;;
62788;SDS011;66401;42.016;21.454;2023-08-06T23:41:07;3.00;;;1.40;;
62788;SDS011;66401;42.016;21.454;2023-08-06T23:43:32;2.57;;;1.57;;
62788;SDS011;66401;42.016;21.454;2023-08-06T23:45:58;1.97;;;1.40;;
62788;SDS011;66401;42.016;21.454;2023-08-06T23:48:27;4.00;;;1.60;;
62788;SDS011;66401;42.016;21.454;2023-08-06T23:50:52;3.00;;;1.00;;
62788;SDS011;66401;42.016;21.454;2023-08-06T23:53:18;2.83;;;1.17;;
62788;SDS011;66401;42.016;21.454;2023-08-06T23:55:44;1.93;;;1.23;;
62788;SDS011;66401;42.016;21.454;2023-08-06T23:58:09;2.83;;;1.30;;
